首页
METAR-TAF:

METAR-TAF

机场 :

Volk Field Air National Guard Base

Camp Douglas, 威斯康辛州, 美国

纬度: 43-56N, 经度: 090-16W, 海拔: 277米

当前天气观测

该预报发布于45分钟前的07:56 UTC
风速7节,风向东转东南
温度 -11°C
湿度 72%
气压 1028 hPa
能見度: 16.1公里
少量云层高于14000英尺
少量云层高于18000英尺

METAR: KVOK 120756Z AUTO 11007KT 10SM FEW140 FEW180 M11/M15 A3035 RMK AO2 SLP301 T11071150 PWINO $

时间: 02:41 (08:41 UTC)

预报

该预报发布于15小时和41分钟前的17:00 UTC
预报有效从11日的 17点(UTC)到 12日的 23点(UTC)
风速12节,风向西转西北
能见度10公里或以上
少量云层高于20000英尺
成为
从 12日的 02点(UTC)到 12日的 03点(UTC)
风速6节,风向多变
能见度10公里或以上
多云层高于8000英尺
阴天层高于20000英尺
成为
从 12日的 13点(UTC)到 12日的 14点(UTC)
风速9节,风向南转南东
能見度: 1600
阴天层高于1500英尺
小雪
成为
从 12日的 22点(UTC)到 12日的 23点(UTC)
风速9节,风向南转南东
能見度: 1209
阴天层高于1500英尺

TAF: KVOK 111700Z 1117/1223 30012KT 9999 FEW200 QNH3027INS BECMG 1202/1203 VRB06KT 9999 BKN080 OVC200 620804 QNH3017INS BECMG 1213/1214 15009KT 1600 -SN OVC015 620159 QNH3008INS BECMG 1222/1223 15009KT 9999 NSW OVC015 620159 QNH3000INS TXM03/1217Z TNM14/1117Z LAST NO AMDS AFT 1122 NEXT 1209

超过4000个机场的气象观测和天气预报(METAR&TAF报告)。

可查询的气象台以黄色和红色小点在地图上表示。

将鼠标移到小点上方,可查看气象台名称。

然后点击查看天气观测和预报。

如需切换地图:点击带黑十字的绿色按钮放大地图;点击带横线的绿色按钮缩小地图;或者点击绿色箭头查看邻近地区的地图。


METAR-TAF: